Time;durP1;ratioP1;P1;durP2;ratioP2;P2;SDS_P1;SDS_P2;PMS_P1;PMS_P2;Temp;Humidity;BMP_temperature;BMP_pressure;BME280_temperature;BME280_humidity;BME280_pressure;Samples;Min_cycle;Max_cycle;Signal;HPM_P1;HPM_P2
2022/06/07 00:00:36;;;;;;;13.32;7.38;;;12.90;99.90;;;;;;5033075;28;20383;-70
2022/06/07 00:03:03;;;;;;;13.18;6.35;;;12.90;99.90;;;;;;5033538;28;20037;-71
2022/06/07 00:05:28;;;;;;;11.35;6.47;;;12.90;99.90;;;;;;5015183;28;20505;-71
2022/06/07 00:07:54;;;;;;;11.82;6.10;;;12.90;99.90;;;;;;5033365;28;20045;-70
2022/06/07 00:10:24;;;;;;;10.50;5.93;;;12.80;99.90;;;;;;5032602;28;20436;-71
2022/06/07 00:12:50;;;;;;;12.02;6.30;;;12.80;99.90;;;;;;5013836;28;20504;-71
2022/06/07 00:15:17;;;;;;;13.60;6.13;;;12.80;99.90;;;;;;5015172;28;20041;-71
2022/06/07 00:17:44;;;;;;;14.18;6.18;;;12.80;99.90;;;;;;5033510;28;20389;-71
2022/06/07 00:20:10;;;;;;;11.05;6.25;;;12.80;99.90;;;;;;5015984;28;20052;-72
2022/06/07 00:22:36;;;;;;;14.30;6.13;;;12.90;99.90;;;;;;5033091;28;20046;-72
2022/06/07 00:25:04;;;;;;;12.60;6.10;;;12.90;99.90;;;;;;5015823;28;20091;-72
2022/06/07 00:27:30;;;;;;;10.10;6.03;;;12.90;99.90;;;;;;5032816;28;20037;-72
2022/06/07 00:29:56;;;;;;;16.38;6.70;;;12.90;99.90;;;;;;5015764;28;20041;-72
2022/06/07 00:32:23;;;;;;;10.60;6.25;;;12.90;99.90;;;;;;5016550;28;20037;-72
2022/06/07 00:34:48;;;;;;;12.93;6.72;;;13.00;99.90;;;;;;5032249;28;20041;-72
2022/06/07 00:37:14;;;;;;;12.88;6.63;;;12.90;99.90;;;;;;5031778;28;20125;-72
2022/06/07 00:39:40;;;;;;;11.18;6.60;;;12.90;99.90;;;;;;5015580;28;20049;-71
2022/06/07 00:42:06;;;;;;;12.02;7.03;;;12.90;99.90;;;;;;5016343;28;20046;-72
2022/06/07 00:44:38;;;;;;;17.67;7.60;;;12.90;99.90;;;;;;5016251;28;20049;-71
2022/06/07 00:47:11;;;;;;;13.10;7.10;;;12.90;99.90;;;;;;5031988;28;20084;-71
2022/06/07 00:49:58;;;;;;;13.60;7.60;;;13.00;99.90;;;;;;5031987;28;20580;-72
2022/06/07 00:52:27;;;;;;;12.32;7.38;;;12.90;99.90;;;;;;5032537;28;20041;-71
2022/06/07 00:54:53;;;;;;;14.68;7.38;;;13.00;99.90;;;;;;5031912;28;20037;-71
2022/06/07 00:57:19;;;;;;;15.80;8.73;;;13.00;99.90;;;;;;5048440;28;20555;-71
2022/06/07 00:59:44;;;;;;;12.85;8.77;;;12.90;99.90;;;;;;5030768;28;20045;-71
2022/06/07 01:02:10;;;;;;;15.45;8.50;;;12.90;99.90;;;;;;5047970;28;20052;-71
2022/06/07 01:04:36;;;;;;;15.20;7.97;;;13.00;99.90;;;;;;5015933;28;20045;-71
2022/06/07 01:12:32;;;;;;;16.55;9.70;;;13.00;99.90;;;;;;5048776;28;20257;-71
2022/06/07 01:14:58;;;;;;;13.15;9.13;;;13.00;99.90;;;;;;5015129;28;20068;-71
2022/06/07 01:17:23;;;;;;;14.23;9.98;;;13.10;99.90;;;;;;5032387;28;20045;-71
2022/06/07 01:19:49;;;;;;;15.80;10.38;;;13.00;99.90;;;;;;5010483;28;20044;-71
2022/06/07 01:22:16;;;;;;;14.32;9.50;;;13.00;99.90;;;;;;5008044;28;20468;-70
2022/06/07 01:24:42;;;;;;;19.30;9.32;;;12.90;99.90;;;;;;5032027;28;20096;-71
2022/06/07 01:27:08;;;;;;;14.43;9.48;;;13.10;99.90;;;;;;5014692;28;20049;-71
2022/06/07 01:29:35;;;;;;;17.40;10.32;;;13.10;99.90;;;;;;5014860;28;20117;-70
2022/06/07 01:32:02;;;;;;;15.07;8.82;;;13.10;99.90;;;;;;5031089;28;20034;-70
2022/06/07 01:34:28;;;;;;;15.02;9.32;;;13.10;99.90;;;;;;5032029;28;20073;-70
2022/06/07 01:36:55;;;;;;;15.05;9.60;;;13.10;99.90;;;;;;5031958;28;20072;-70
2022/06/07 01:42:06;;;;;;;13.75;8.68;;;13.20;99.90;;;;;;5031832;28;20056;-70
2022/06/07 01:44:40;;;;;;;18.88;9.27;;;13.10;99.90;;;;;;5030878;28;20045;-70
2022/06/07 01:47:09;;;;;;;15.30;9.30;;;13.10;99.90;;;;;;5031254;28;20120;-70
2022/06/07 01:49:35;;;;;;;15.77;9.57;;;13.20;99.90;;;;;;5015344;28;20034;-70
2022/06/07 01:52:01;;;;;;;14.25;9.48;;;13.10;99.90;;;;;;5030895;28;20065;-70
2022/06/07 01:54:27;;;;;;;15.27;9.18;;;13.10;99.90;;;;;;5047861;28;20037;-70
2022/06/07 01:56:53;;;;;;;15.38;9.10;;;13.20;99.90;;;;;;5031779;28;20037;-70
2022/06/07 01:59:19;;;;;;;13.35;8.68;;;13.20;99.90;;;;;;5030742;28;20045;-70
2022/06/07 02:01:46;;;;;;;13.13;8.18;;;13.20;99.90;;;;;;5033729;28;20037;-70
2022/06/07 02:04:12;;;;;;;16.15;9.32;;;13.20;99.90;;;;;;5035963;28;20076;-70
2022/06/07 02:06:38;;;;;;;15.27;8.18;;;13.10;99.90;;;;;;5034745;28;20107;-69
2022/06/07 02:09:06;;;;;;;15.77;9.13;;;13.20;99.90;;;;;;5019299;28;20532;-70
2022/06/07 02:11:32;;;;;;;13.15;9.13;;;13.20;99.90;;;;;;5035453;28;20069;-70
2022/06/07 02:13:58;;;;;;;14.57;8.27;;;13.10;99.90;;;;;;5034860;28;20040;-70
2022/06/07 02:16:24;;;;;;;14.23;7.95;;;13.20;99.90;;;;;;5018362;28;20037;-70
2022/06/07 02:18:50;;;;;;;13.70;8.30;;;13.20;99.90;;;;;;5034335;28;20045;-70
2022/06/07 02:21:18;;;;;;;12.18;8.10;;;13.30;99.90;;;;;;5018189;28;20128;-71
2022/06/07 02:23:44;;;;;;;14.20;8.38;;;13.20;99.90;;;;;;5035500;28;20079;-70
2022/06/07 02:26:32;;;;;;;15.15;8.65;;;13.30;99.90;;;;;;5033962;28;20073;-71
2022/06/07 02:29:03;;;;;;;12.35;6.57;;;13.20;99.90;;;;;;5035501;28;20060;-71
2022/06/07 02:31:32;;;;;;;13.68;8.02;;;13.30;99.90;;;;;;5051759;28;20041;-70
2022/06/07 02:34:00;;;;;;;11.60;7.30;;;13.20;99.90;;;;;;5034588;28;20252;-71
2022/06/07 02:36:28;;;;;;;11.30;8.07;;;13.30;99.90;;;;;;5035358;28;20037;-70
2022/06/07 02:38:54;;;;;;;13.25;7.20;;;13.30;99.90;;;;;;5035012;28;20038;-70
2022/06/07 02:41:23;;;;;;;11.50;7.15;;;13.30;99.90;;;;;;5034791;28;20076;-70
2022/06/07 02:43:48;;;;;;;13.90;7.47;;;13.30;99.90;;;;;;5016905;28;20577;-70
2022/06/07 02:46:14;;;;;;;14.20;8.20;;;13.30;99.90;;;;;;5050634;28;20116;-70
2022/06/07 02:48:40;;;;;;;14.27;8.20;;;13.30;99.90;;;;;;5034400;28;20035;-70
2022/06/07 02:51:06;;;;;;;16.75;8.55;;;13.20;99.90;;;;;;5034910;28;20045;-70
2022/06/07 02:53:32;;;;;;;13.93;9.32;;;13.20;99.90;;;;;;5018585;28;20095;-71
2022/06/07 02:55:57;;;;;;;13.82;8.63;;;13.20;99.90;;;;;;4998629;28;20069;-71
2022/06/07 02:58:24;;;;;;;14.98;8.60;;;13.20;99.90;;;;;;5014981;28;20486;-70
2022/06/07 03:00:49;;;;;;;13.35;8.27;;;13.40;99.90;;;;;;5032567;28;20513;-70
2022/06/07 03:03:16;;;;;;;13.07;7.97;;;13.30;99.90;;;;;;5034822;28;20045;-70
2022/06/07 03:05:42;;;;;;;16.02;9.25;;;13.30;99.90;;;;;;5034523;28;20049;-70
2022/06/07 03:08:08;;;;;;;13.07;8.68;;;13.30;99.90;;;;;;5032819;28;20033;-70
2022/06/07 03:10:33;;;;;;;14.18;9.32;;;13.30;99.90;;;;;;5032592;28;20029;-71
2022/06/07 03:12:59;;;;;;;14.98;9.13;;;13.30;99.90;;;;;;5033307;28;20094;-70
2022/06/07 03:15:25;;;;;;;14.52;9.95;;;13.30;99.90;;;;;;5034504;28;20037;-70
2022/06/07 03:17:51;;;;;;;15.85;10.23;;;13.30;99.90;;;;;;5018187;28;20464;-70
2022/06/07 03:20:16;;;;;;;16.38;9.85;;;13.20;99.90;;;;;;5017147;28;20068;-70
2022/06/07 03:22:42;;;;;;;14.68;10.02;;;13.30;99.90;;;;;;5034204;28;20049;-70
2022/06/07 03:25:10;;;;;;;15.20;10.52;;;13.20;99.90;;;;;;5034448;28;20486;-70
2022/06/07 03:27:37;;;;;;;17.17;9.73;;;13.20;99.90;;;;;;5033444;28;20045;-71
2022/06/07 03:30:06;;;;;;;14.48;9.45;;;13.20;99.90;;;;;;5033499;28;20033;-70
2022/06/07 03:32:33;;;;;;;16.45;9.88;;;13.30;99.90;;;;;;5017566;28;20041;-70
2022/06/07 03:34:58;;;;;;;14.93;9.13;;;13.30;99.90;;;;;;5034205;28;20045;-70
2022/06/07 03:37:24;;;;;;;16.13;10.40;;;13.30;99.90;;;;;;5032517;28;20156;-70
2022/06/07 03:39:51;;;;;;;15.75;9.05;;;13.30;99.90;;;;;;5032222;28;20081;-70
2022/06/07 03:42:17;;;;;;;16.42;9.85;;;13.30;99.90;;;;;;5032617;28;20042;-70
2022/06/07 03:44:48;;;;;;;15.88;9.45;;;13.40;99.90;;;;;;5033921;28;20482;-70
2022/06/07 03:47:18;;;;;;;17.00;10.48;;;13.40;99.90;;;;;;5016546;28;20084;-70
2022/06/07 03:49:43;;;;;;;15.85;10.13;;;13.30;99.90;;;;;;5050713;28;20464;-70
2022/06/07 03:52:10;;;;;;;15.95;9.57;;;13.40;99.90;;;;;;5017119;28;20079;-70
2022/06/07 03:54:35;;;;;;;15.25;8.23;;;13.30;99.90;;;;;;5033011;28;20069;-70
2022/06/07 03:57:03;;;;;;;14.85;10.07;;;13.40;99.90;;;;;;5033824;28;20080;-70
2022/06/07 03:59:28;;;;;;;16.25;10.10;;;13.40;99.90;;;;;;5032791;28;20518;-70
2022/06/07 04:01:54;;;;;;;14.75;9.48;;;13.40;99.90;;;;;;5032744;28;20044;-70
2022/06/07 04:04:20;;;;;;;15.20;9.40;;;13.40;99.90;;;;;;5032041;28;20033;-70
2022/06/07 04:09:32;;;;;;;14.00;8.98;;;13.40;99.90;;;;;;5033455;28;20041;-70
2022/06/07 04:11:58;;;;;;;16.80;9.80;;;13.30;99.90;;;;;;5033193;28;20042;-70
2022/06/07 04:14:23;;;;;;;15.65;9.43;;;13.30;99.90;;;;;;5031665;28;20029;-70
2022/06/07 04:16:49;;;;;;;15.55;10.00;;;13.40;99.90;;;;;;5033490;28;20504;-70
2022/06/07 04:19:14;;;;;;;17.48;10.05;;;13.40;99.90;;;;;;5049694;28;20037;-70
2022/06/07 04:21:40;;;;;;;14.68;9.43;;;13.40;99.90;;;;;;5049178;28;20041;-70
2022/06/07 04:24:06;;;;;;;14.07;9.75;;;13.40;99.90;;;;;;5017963;28;20068;-71
2022/06/07 04:26:32;;;;;;;15.82;10.75;;;13.40;99.90;;;;;;5030953;28;20781;-70
2022/06/07 04:28:58;;;;;;;17.48;10.30;;;13.30;99.90;;;;;;5015162;28;20037;-70
2022/06/07 04:31:26;;;;;;;15.50;9.32;;;13.40;99.90;;;;;;5031035;28;20038;-70
2022/06/07 04:33:56;;;;;;;18.20;11.15;;;13.40;99.90;;;;;;5031238;28;20037;-70
2022/06/07 04:36:23;;;;;;;16.95;11.43;;;13.20;99.90;;;;;;5015229;28;20048;-70
2022/06/07 04:38:51;;;;;;;17.63;11.40;;;13.20;99.90;;;;;;5029472;28;20033;-70
2022/06/07 04:41:18;;;;;;;17.75;11.13;;;13.00;99.90;;;;;;5031363;28;20449;-71
2022/06/07 04:43:45;;;;;;;19.27;11.27;;;13.00;99.90;;;;;;5031272;28;20038;-71
2022/06/07 04:46:15;;;;;;;18.27;11.85;;;12.90;99.90;;;;;;5031823;28;20044;-71
2022/06/07 04:48:42;;;;;;;18.70;11.63;;;12.90;99.90;;;;;;5021034;28;20416;-71
2022/06/07 04:51:17;;;;;;;19.33;12.68;;;13.00;99.90;;;;;;5028849;28;20124;-71
2022/06/07 04:53:43;;;;;;;19.38;11.90;;;12.80;99.90;;;;;;5038979;28;20440;-71
2022/06/07 04:56:21;;;;;;;17.45;12.50;;;12.80;99.90;;;;;;5012547;28;20037;-71
2022/06/07 04:58:47;;;;;;;19.95;12.27;;;12.70;99.90;;;;;;5032493;28;20041;-70
2022/06/07 05:01:25;;;;;;;17.98;11.77;;;12.80;99.90;;;;;;5030931;28;20041;-70
2022/06/07 05:03:52;;;;;;;15.75;10.35;;;12.90;99.90;;;;;;5014086;28;20037;-70
2022/06/07 05:06:19;;;;;;;16.55;11.80;;;13.00;99.90;;;;;;5041249;28;20448;-70
2022/06/07 05:08:45;;;;;;;17.00;11.82;;;13.00;99.90;;;;;;5030884;28;20041;-71
2022/06/07 05:11:11;;;;;;;16.88;10.98;;;12.90;99.90;;;;;;5029120;28;20033;-73
2022/06/07 05:13:37;;;;;;;15.93;10.57;;;13.10;99.90;;;;;;5031564;28;20551;-72
2022/06/07 05:16:04;;;;;;;17.35;10.75;;;13.10;99.90;;;;;;5031668;28;20033;-72
2022/06/07 05:18:29;;;;;;;15.38;10.82;;;13.10;99.90;;;;;;5031810;28;20045;-72
2022/06/07 05:20:55;;;;;;;16.95;11.25;;;13.10;99.90;;;;;;5013865;28;20041;-72
2022/06/07 05:23:21;;;;;;;17.50;11.63;;;13.00;99.90;;;;;;5030553;28;20040;-71
2022/06/07 05:26:13;;;;;;;16.48;11.82;;;12.90;99.90;;;;;;5029054;28;20393;-72
2022/06/07 05:28:42;;;;;;;17.45;11.90;;;12.90;99.90;;;;;;5029196;28;20056;-72
2022/06/07 05:31:08;;;;;;;14.70;11.52;;;12.80;99.90;;;;;;5046854;28;20424;-72
2022/06/07 05:33:34;;;;;;;20.08;12.90;;;12.80;99.90;;;;;;5014979;28;20078;-72
2022/06/07 05:36:00;;;;;;;17.27;12.85;;;12.70;99.90;;;;;;5029866;28;20033;-72
2022/06/07 05:38:25;;;;;;;18.48;12.23;;;12.60;99.90;;;;;;5030460;28;20041;-72
2022/06/07 05:40:52;;;;;;;19.77;12.00;;;12.60;99.90;;;;;;5013073;28;20449;-72
2022/06/07 05:43:18;;;;;;;15.13;10.50;;;12.60;99.90;;;;;;5030976;28;20049;-72
2022/06/07 05:45:48;;;;;;;13.38;9.63;;;12.60;99.90;;;;;;5031250;28;20048;-72
2022/06/07 05:48:14;;;;;;;15.23;8.68;;;12.70;99.90;;;;;;5027943;28;20087;-73
2022/06/07 05:50:41;;;;;;;11.00;7.55;;;12.60;99.90;;;;;;5030026;28;20430;-72
2022/06/07 05:53:06;;;;;;;11.32;7.03;;;12.60;99.90;;;;;;5015226;28;20124;-72
2022/06/07 05:55:32;;;;;;;11.38;6.13;;;12.70;99.90;;;;;;5028760;28;20125;-72
2022/06/07 05:57:58;;;;;;;11.60;5.97;;;12.70;99.90;;;;;;5029397;28;20045;-73
2022/06/07 06:00:24;;;;;;;9.50;5.95;;;12.70;99.90;;;;;;5020943;28;20029;-72
2022/06/07 06:02:50;;;;;;;11.45;4.72;;;12.60;99.90;;;;;;5029103;28;20041;-72
2022/06/07 06:05:16;;;;;;;9.00;4.50;;;12.70;99.90;;;;;;5029599;28;20037;-73
2022/06/07 06:10:26;;;;;;;8.80;3.97;;;12.60;99.90;;;;;;5030287;28;20037;-73
2022/06/07 06:12:52;;;;;;;6.30;3.60;;;12.70;99.90;;;;;;5030995;28;20053;-72
2022/06/07 06:15:18;;;;;;;7.25;4.07;;;12.60;99.90;;;;;;5038769;28;20042;-72
2022/06/07 06:17:44;;;;;;;6.82;3.83;;;12.60;99.90;;;;;;5029138;28;20041;-72
2022/06/07 06:20:10;;;;;;;8.88;4.13;;;12.50;99.90;;;;;;5031124;28;20034;-72
2022/06/07 06:22:37;;;;;;;8.43;4.18;;;12.50;99.90;;;;;;5047253;28;20050;-73
2022/06/07 06:25:03;;;;;;;9.73;3.58;;;12.40;99.90;;;;;;5029849;28;20037;-72
2022/06/07 06:27:32;;;;;;;9.45;3.88;;;12.30;99.90;;;;;;5014093;28;20045;-72
2022/06/07 06:29:59;;;;;;;7.03;3.80;;;12.30;99.90;;;;;;5024126;28;20120;-72
2022/06/07 06:32:24;;;;;;;8.30;4.40;;;12.40;99.90;;;;;;5038756;28;20046;-73
2022/06/07 06:34:50;;;;;;;9.57;4.55;;;12.30;99.90;;;;;;5029363;28;20048;-73
2022/06/07 06:37:16;;;;;;;10.68;5.15;;;12.30;99.90;;;;;;5012070;28;20072;-73
2022/06/07 06:39:42;;;;;;;11.80;5.03;;;12.40;99.90;;;;;;5027322;28;20497;-72
2022/06/07 06:42:09;;;;;;;10.25;4.82;;;12.40;99.90;;;;;;5027119;28;20048;-73
2022/06/07 06:44:34;;;;;;;11.38;5.03;;;12.40;99.90;;;;;;5028763;28;20070;-72
2022/06/07 06:47:01;;;;;;;10.95;5.43;;;12.50;99.90;;;;;;5031104;28;20045;-72
2022/06/07 06:49:27;;;;;;;10.32;5.28;;;12.50;99.90;;;;;;5051706;28;20095;-73
2022/06/07 06:51:53;;;;;;;10.48;4.75;;;12.50;99.90;;;;;;5032981;28;20053;-72
2022/06/07 06:54:19;;;;;;;13.27;5.38;;;12.50;99.90;;;;;;5033967;28;20044;-72
2022/06/07 06:56:47;;;;;;;12.23;5.05;;;12.50;99.90;;;;;;5032135;28;20525;-72
2022/06/07 06:59:13;;;;;;;10.23;5.68;;;12.50;99.90;;;;;;5051555;28;20398;-72
2022/06/07 07:01:39;;;;;;;12.55;5.15;;;12.60;99.90;;;;;;5024986;28;20038;-72
2022/06/07 07:04:10;;;;;;;10.77;4.57;;;12.60;99.90;;;;;;5027449;28;20049;-72
2022/06/07 07:06:37;;;;;;;10.98;5.13;;;12.60;99.90;;;;;;5044129;28;20041;-72
2022/06/07 07:09:04;;;;;;;12.02;4.88;;;12.50;99.90;;;;;;5033970;28;20045;-72
2022/06/07 07:11:38;;;;;;;11.93;5.50;;;12.60;99.90;;;;;;5031948;28;20060;-72
2022/06/07 07:14:06;;;;;;;12.40;5.50;;;12.60;99.90;;;;;;5033742;28;20033;-72
2022/06/07 07:16:34;;;;;;;10.00;5.05;;;12.50;99.90;;;;;;5033889;28;20052;-72
2022/06/07 07:19:03;;;;;;;11.30;5.88;;;12.50;99.90;;;;;;5014256;28;20030;-72
2022/06/07 07:21:35;;;;;;;13.50;5.75;;;12.50;99.90;;;;;;4998484;28;20045;-72
2022/06/07 07:24:08;;;;;;;16.17;7.00;;;12.40;99.90;;;;;;5032967;28;20037;-72
2022/06/07 07:26:35;;;;;;;13.35;6.53;;;12.30;99.90;;;;;;5031290;28;20030;-73
2022/06/07 07:29:03;;;;;;;12.13;6.20;;;12.30;99.90;;;;;;5049341;28;20084;-73
2022/06/07 07:31:36;;;;;;;11.63;5.93;;;12.30;99.90;;;;;;5032562;28;20037;-72
2022/06/07 07:34:03;;;;;;;13.35;4.85;;;12.30;99.90;;;;;;5016887;28;20045;-73
2022/06/07 07:36:29;;;;;;;12.38;4.18;;;12.30;99.90;;;;;;5032788;28;20041;-72
2022/06/07 07:38:56;;;;;;;13.07;4.63;;;12.30;99.90;;;;;;5015344;28;20069;-73
2022/06/07 07:41:26;;;;;;;7.28;2.70;;;12.30;99.90;;;;;;5032670;28;20052;-72
2022/06/07 07:43:53;;;;;;;8.23;4.05;;;12.10;99.90;;;;;;5032442;28;20087;-73
2022/06/07 07:46:21;;;;;;;7.00;2.47;;;12.10;99.90;;;;;;5049902;28;20040;-73
2022/06/07 07:48:48;;;;;;;6.78;2.42;;;12.20;99.90;;;;;;5015430;28;20124;-73
2022/06/07 07:51:21;;;;;;;6.28;2.28;;;12.20;99.90;;;;;;5017525;28;20472;-73
2022/06/07 07:53:50;;;;;;;7.03;2.30;;;12.20;99.90;;;;;;5014880;28;20091;-73
2022/06/07 07:56:16;;;;;;;6.63;2.97;;;12.20;99.90;;;;;;5033823;28;20120;-73
2022/06/07 07:58:42;;;;;;;5.95;2.47;;;12.30;99.90;;;;;;5024577;28;20034;-73
2022/06/07 08:01:10;;;;;;;8.57;3.10;;;12.40;99.90;;;;;;5002899;28;20056;-73
2022/06/07 08:03:37;;;;;;;7.60;3.00;;;12.50;99.90;;;;;;5015762;28;20449;-73
2022/06/07 08:06:05;;;;;;;9.18;4.00;;;12.50;99.90;;;;;;5031656;28;20052;-73
2022/06/07 08:08:30;;;;;;;11.15;4.22;;;12.50;99.90;;;;;;5032378;28;20041;-73
2022/06/07 08:10:56;;;;;;;10.48;4.10;;;12.60;99.90;;;;;;5033022;28;20088;-73
2022/06/07 08:13:22;;;;;;;11.35;4.47;;;12.60;99.90;;;;;;5031329;28;20535;-73
2022/06/07 08:15:47;;;;;;;9.93;4.68;;;12.60;99.90;;;;;;5032420;28;20049;-73
2022/06/07 08:18:13;;;;;;;10.27;4.22;;;12.60;99.90;;;;;;5026302;28;20517;-73
2022/06/07 08:20:39;;;;;;;11.40;4.65;;;12.60;99.90;;;;;;5000013;28;20094;-73
2022/06/07 08:23:07;;;;;;;10.93;4.35;;;12.50;99.90;;;;;;5015707;28;20609;-73
2022/06/07 08:25:33;;;;;;;10.10;4.07;;;12.50;99.90;;;;;;5015233;28;20037;-73
2022/06/07 08:27:59;;;;;;;8.88;4.00;;;12.60;99.90;;;;;;5031776;28;20126;-73
2022/06/07 08:30:25;;;;;;;8.80;3.47;;;12.50;99.90;;;;;;5031139;28;20044;-73
2022/06/07 08:32:50;;;;;;;8.40;3.67;;;12.60;99.90;;;;;;5031062;28;20053;-73
2022/06/07 08:38:03;;;;;;;9.00;3.42;;;12.80;99.90;;;;;;5048834;28;20045;-73
2022/06/07 08:40:43;;;;;;;8.40;3.15;;;12.90;99.90;;;;;;5031184;28;20064;-72
2022/06/07 08:43:20;;;;;;;7.00;3.47;;;13.00;99.90;;;;;;5012431;28;20048;-73
2022/06/07 08:45:47;;;;;;;9.60;3.63;;;12.90;99.90;;;;;;5012752;28;20045;-72
2022/06/07 08:48:25;;;;;;;9.50;3.80;;;12.90;99.90;;;;;;5023632;28;20123;-72
2022/06/07 08:50:58;;;;;;;8.80;3.42;;;13.10;99.90;;;;;;5014104;28;20043;-73
2022/06/07 08:53:53;;;;;;;7.20;2.97;;;13.10;99.90;;;;;;5014277;28;20060;-73
2022/06/07 08:56:26;;;;;;;6.65;3.08;;;13.20;99.90;;;;;;5026126;28;20049;-72
2022/06/07 08:58:54;;;;;;;8.35;3.65;;;13.10;99.90;;;;;;5027579;28;20064;-72
2022/06/07 09:01:35;;;;;;;8.80;3.22;;;13.10;99.90;;;;;;5014565;28;20038;-72
2022/06/07 09:04:17;;;;;;;6.88;2.85;;;13.20;99.90;;;;;;5030240;28;20034;-72
2022/06/07 09:06:47;;;;;;;9.77;3.13;;;13.20;99.90;;;;;;5012672;28;20077;-73
2022/06/07 09:09:15;;;;;;;6.78;2.13;;;13.20;99.90;;;;;;5031068;28;20034;-72
2022/06/07 09:12:10;;;;;;;4.85;1.80;;;13.30;99.90;;;;;;5031853;28;20033;-73
2022/06/07 09:14:53;;;;;;;6.68;1.83;;;13.40;99.90;;;;;;5029783;28;20041;-73
2022/06/07 09:17:29;;;;;;;4.82;1.50;;;13.30;99.90;;;;;;5034764;28;20067;-72
2022/06/07 09:19:55;;;;;;;6.35;1.98;;;13.20;99.90;;;;;;5039645;28;20155;-72
2022/06/07 09:22:25;;;;;;;7.40;2.17;;;13.30;99.90;;;;;;5051100;28;20132;-72
2022/06/07 09:25:03;;;;;;;5.75;2.00;;;13.30;99.90;;;;;;5020097;28;20041;-72
2022/06/07 09:27:33;;;;;;;7.38;2.00;;;13.30;99.90;;;;;;5032026;28;20112;-72
2022/06/07 09:30:08;;;;;;;6.47;2.15;;;13.40;99.90;;;;;;5046175;28;20124;-72
2022/06/07 09:32:38;;;;;;;8.13;2.85;;;13.50;99.90;;;;;;5030817;28;20511;-73
2022/06/07 09:35:20;;;;;;;5.55;2.08;;;13.50;99.90;;;;;;5046183;28;20038;-73
2022/06/07 09:37:54;;;;;;;6.10;2.30;;;13.50;99.90;;;;;;5011790;28;20577;-72
2022/06/07 09:40:31;;;;;;;5.30;1.80;;;13.60;99.90;;;;;;5012119;28;20072;-72
2022/06/07 09:43:05;;;;;;;6.75;1.83;;;13.60;99.90;;;;;;5027415;28;20223;-72
2022/06/07 09:45:37;;;;;;;6.18;2.20;;;13.70;99.90;;;;;;5011722;28;20042;-73
2022/06/07 09:48:39;;;;;;;7.38;2.40;;;13.70;99.90;;;;;;5015396;28;20045;-72
2022/06/07 09:51:24;;;;;;;5.97;2.00;;;13.70;99.90;;;;;;5014041;28;20401;-72
2022/06/07 09:54:13;;;;;;;7.97;1.70;;;13.50;99.90;;;;;;5045294;28;20397;-72
2022/06/07 09:56:38;;;;;;;6.75;1.45;;;13.60;99.90;;;;;;5014959;28;20069;-72
2022/06/07 09:59:13;;;;;;;6.20;1.77;;;13.60;99.90;;;;;;5015057;28;20080;-73
2022/06/07 10:01:55;;;;;;;6.32;1.67;;;13.60;99.90;;;;;;5033803;28;20038;-73
2022/06/07 10:04:48;;;;;;;6.78;1.40;;;13.70;99.90;;;;;;5034594;28;20124;-73
2022/06/07 10:07:46;;;;;;;8.00;1.50;;;13.90;99.90;;;;;;5041255;28;20483;-73
2022/06/07 10:10:48;;;;;;;3.72;1.40;;;13.80;99.90;;;;;;5023202;28;20502;-73
2022/06/07 10:13:50;;;;;;;6.80;1.67;;;13.70;99.90;;;;;;4976449;28;20122;-73
2022/06/07 10:16:35;;;;;;;;;;;13.80;99.90;;;;;;5030143;28;20044;-72
2022/06/07 10:19:25;;;;;;;10.43;1.83;;;13.90;99.90;;;;;;5030855;28;19940;-73
2022/06/07 10:22:16;;;;;;;9.63;1.63;;;14.00;99.90;;;;;;5013087;28;20124;-73
2022/06/07 10:24:50;;;;;;;6.63;1.60;;;13.90;99.90;;;;;;5033837;28;20395;-72
2022/06/07 10:27:40;;;;;;;8.88;2.00;;;14.00;99.90;;;;;;5033507;28;20044;-73
2022/06/07 10:30:36;;;;;;;8.43;1.83;;;13.90;99.90;;;;;;5035828;28;20041;-72
2022/06/07 10:33:31;;;;;;;8.77;1.70;;;14.00;99.90;;;;;;5031514;28;20114;-73
2022/06/07 10:36:28;;;;;;;9.23;1.88;;;13.90;99.90;;;;;;5032494;28;20133;-72
2022/06/07 10:39:32;;;;;;;8.88;2.00;;;14.10;99.90;;;;;;5032479;28;20448;-73
2022/06/07 10:42:19;;;;;;;7.00;1.55;;;14.00;99.90;;;;;;5047545;28;20132;-72
2022/06/07 10:44:53;;;;;;;6.80;1.80;;;14.00;99.90;;;;;;5033641;28;20070;-73
2022/06/07 10:47:33;;;;;;;9.25;1.80;;;13.90;99.90;;;;;;5030197;28;20041;-72
2022/06/07 10:50:04;;;;;;;6.03;1.50;;;13.90;99.90;;;;;;5017083;28;20053;-73
2022/06/07 10:52:44;;;;;;;5.38;1.45;;;13.90;99.90;;;;;;5033486;28;20041;-73
2022/06/07 10:55:29;;;;;;;5.47;1.55;;;14.10;99.90;;;;;;5013331;28;20037;-72
2022/06/07 10:58:29;;;;;;;4.32;1.30;;;14.10;99.90;;;;;;5014329;28;20172;-72
2022/06/07 11:01:01;;;;;;;3.42;1.10;;;14.20;99.90;;;;;;5051209;28;20037;-72
2022/06/07 11:03:50;;;;;;;6.80;1.90;;;14.20;99.90;;;;;;5032192;28;20089;-72
2022/06/07 11:09:42;;;;;;;5.72;1.60;;;14.40;99.90;;;;;;5032555;28;20502;-72
2022/06/07 11:12:33;;;;;;;4.45;1.40;;;14.40;99.90;;;;;;5029123;28;20467;-72
2022/06/07 11:15:20;;;;;;;5.78;1.70;;;14.40;99.90;;;;;;5014587;28;20444;-73
2022/06/07 11:18:04;;;;;;;6.07;1.70;;;14.50;99.90;;;;;;5014896;28;20050;-72
2022/06/07 11:20:34;;;;;;;6.45;1.42;;;14.50;99.90;;;;;;5017522;28;20037;-72
2022/06/07 11:23:13;;;;;;;9.32;2.05;;;14.50;99.90;;;;;;5033701;28;20086;-73
2022/06/07 11:25:58;;;;;;;7.03;1.90;;;14.70;99.90;;;;;;5017126;28;20428;-73
2022/06/07 11:28:27;;;;;;;7.53;1.70;;;14.60;99.90;;;;;;5031950;28;20128;-72
2022/06/07 11:30:59;;;;;;;8.98;1.77;;;14.70;99.90;;;;;;5033421;28;20033;-72
2022/06/07 11:33:56;;;;;;;8.57;2.08;;;14.80;99.90;;;;;;5016747;28;20044;-72
2022/06/07 11:36:24;;;;;;;6.75;2.00;;;14.70;99.90;;;;;;5033353;28;20042;-72
2022/06/07 11:39:04;;;;;;;7.35;1.70;;;14.70;99.90;;;;;;5016600;28;20045;-72
2022/06/07 11:41:39;;;;;;;6.95;1.80;;;14.70;99.90;;;;;;5033861;28;20473;-72
2022/06/07 11:44:07;;;;;;;8.77;2.65;;;14.80;99.90;;;;;;5033804;28;20048;-72
2022/06/07 11:46:33;;;;;;;5.95;1.65;;;14.70;99.90;;;;;;5032125;28;20125;-72
2022/06/07 11:49:20;;;;;;;6.82;2.03;;;14.60;99.90;;;;;;5014114;28;20171;-72
2022/06/07 11:52:12;;;;;;;4.45;1.63;;;14.60;99.90;;;;;;5049068;28;20046;-72
2022/06/07 11:55:04;;;;;;;6.30;1.65;;;14.90;99.90;;;;;;5015455;28;20073;-72
2022/06/07 11:57:37;;;;;;;8.75;1.90;;;14.80;99.90;;;;;;5031957;28;20423;-72
2022/06/07 12:00:21;;;;;;;5.30;1.90;;;14.80;99.90;;;;;;5035109;28;20073;-72
2022/06/07 12:03:08;;;;;;;8.55;1.70;;;14.80;99.90;;;;;;5017494;28;20041;-72
2022/06/07 12:05:37;;;;;;;8.68;1.70;;;14.90;99.90;;;;;;5033237;28;20041;-72
2022/06/07 12:08:26;;;;;;;8.65;1.95;;;15.10;99.90;;;;;;5029536;28;20532;-72
2022/06/07 12:11:22;;;;;;;8.32;1.92;;;15.20;99.90;;;;;;5046520;28;20065;-72
2022/06/07 12:14:01;;;;;;;10.48;1.67;;;15.20;99.90;;;;;;5033104;28;20486;-72
2022/06/07 12:16:40;;;;;;;6.72;1.77;;;15.20;99.90;;;;;;5032834;28;20056;-72
2022/06/07 12:19:24;;;;;;;8.70;2.10;;;15.20;99.90;;;;;;5014807;28;20060;-71
2022/06/07 12:22:04;;;;;;;8.13;2.08;;;15.30;99.90;;;;;;5032766;28;20091;-72
2022/06/07 12:24:42;;;;;;;5.50;1.60;;;15.20;99.90;;;;;;5049575;28;20041;-72
2022/06/07 12:27:30;;;;;;;7.90;1.95;;;15.20;99.90;;;;;;5050028;28;20535;-72
2022/06/07 12:30:02;;;;;;;9.65;2.10;;;15.20;99.90;;;;;;5031615;28;20120;-72
2022/06/07 12:32:34;;;;;;;6.07;1.50;;;15.20;99.90;;;;;;5032431;28;20037;-72
2022/06/07 12:35:23;;;;;;;8.90;1.73;;;15.20;99.90;;;;;;5016391;28;20044;-72
2022/06/07 12:37:59;;;;;;;7.55;1.90;;;15.20;99.90;;;;;;5047773;28;20127;-72
2022/06/07 12:40:32;;;;;;;9.30;2.17;;;15.30;99.90;;;;;;5014979;28;20053;-72
2022/06/07 12:42:59;;;;;;;11.70;2.35;;;15.10;99.90;;;;;;5021717;28;20049;-72
2022/06/07 12:45:34;;;;;;;7.80;2.22;;;14.90;99.90;;;;;;5031814;28;20095;-72
2022/06/07 12:48:18;;;;;;;7.38;1.85;;;15.20;99.90;;;;;;5031290;28;20112;-72
2022/06/07 12:50:46;;;;;;;7.00;2.40;;;15.20;99.90;;;;;;5016317;28;20033;-73
2022/06/07 12:53:21;;;;;;;8.05;2.25;;;15.30;99.90;;;;;;5031543;28;20048;-72
2022/06/07 12:55:57;;;;;;;8.02;2.33;;;15.30;99.90;;;;;;4996776;28;20152;-72
2022/06/07 12:58:25;;;;;;;9.55;2.05;;;15.30;99.90;;;;;;5012913;28;20042;-72
2022/06/07 13:00:51;;;;;;;9.20;2.22;;;15.20;99.90;;;;;;5012895;28;20128;-72
2022/06/07 13:03:37;;;;;;;11.45;3.45;;;15.40;99.90;;;;;;5014456;28;20571;-72
2022/06/07 13:06:04;;;;;;;5.97;1.80;;;15.50;99.90;;;;;;5031770;28;20116;-73
2022/06/07 13:08:36;;;;;;;7.35;2.10;;;15.70;99.90;;;;;;5031975;28;20513;-72
2022/06/07 13:11:05;;;;;;;6.93;2.35;;;15.60;99.90;;;;;;5031313;28;20041;-72
2022/06/07 13:13:35;;;;;;;9.05;2.33;;;15.50;99.90;;;;;;5030954;28;20493;-72
2022/06/07 13:16:16;;;;;;;7.15;2.35;;;15.60;99.90;;;;;;5031648;28;20064;-73
2022/06/07 13:18:56;;;;;;;8.05;2.20;;;15.70;99.90;;;;;;5048839;28;20124;-73
2022/06/07 13:21:29;;;;;;;7.13;2.20;;;15.90;99.90;;;;;;5015762;28;20041;-73